Woodburn, Mississippi
Current Conditions -  °F | °C
As of 9:53 AM on Wednesday 22 Oct 2014 (Local Time) from KGLH Reporting Station
Clear Clear  
Wind Chill: 62°   Ceiling: Unl
Heat Index: 62°   Visibility: 10mi
Dew Point: 50°   Wind: 10mph
Humidity: 65%   Direction: 80°E
Pressure: 30.2"   Gusts: NA
Location:  33.4825°N, 90.6856°W
Report Text: KGLH 221453Z AUTO 08009KT 10SM CLR 17/10 A3020 RMK AO2 SLP235 T01670100 53019
Loading
Personal Weather Stations






























Interactive Weather Map
Tropical Storm Tracking
New forecast layout! Learn more

10-Day Weather Forecast

Advertisements
Track Severe Weather on mobile